Airfield :
LOGIN :

Register | Disclaimer

   EN    FR    IT 

 










Legend :    VFR   Marginal VFR   IFR   Intensive IFR   Very Intensive IFR
Visi :
Ceiling :
>= 8 km
>= 3000ft
5 to 8 km
1000 to 3000 ft
1500m to 5 km
500 to 1000 ft
800 to 1500m
200 to 500 ft
< 800m
< 200 ft
Symbols :   Thunderstorms  Fog  Heavy snow  Heavy precipitations  Wind > 20 kt
SIGMETs :     Misc.  Thunderstorms  Icing  Turbulence  Mountain Waves  Volcanic Ashes






- Airport Elevation : 286 ft
- IATA code : TRF


ENTO - Sandefjord , Torp

CURRENT METAR :
  • 171750Z VRB02KT CAVOK 01/01 Q1016 NOSIG

EXPIRED METARs :
  • 171720Z 23003KT CAVOK 02/02 Q1015 NOSIG
  • 171650Z 34001KT CAVOK 02/02 Q1015 NOSIG
  • 171620Z VRB02KT CAVOK 03/03 Q1015 NOSIG
  • 171550Z 19001KT 9999 FEW012 03/03 Q1014 NOSIG
  • 171520Z VRB02KT 9999 FEW012 03/03 Q1014 NOSIG

TAF TAF ENTO
Valid from the 17 at 18:00 until the 18 at 18:00 UTC


1718/1818 VRB05KT 9999 SCT020
PROB40 1718/1804 0500 FZFG VV001
BECMG 1802/1804 02012KT BKN012
TEMPO 1806/1809 4000 SNRA OVC004
TEMPO 1809/1818 4000 RA BR OVC002



MET'MAP, your aeronautical weather chart ! - Copyright ORBIFLY December 2007 - Disclaimer

ORBIFLY MET'MAP TEAM :

Programming & Development : Alexandra Zaïnal
Concept & Development : Baudouin d'Aumeries
Co-Development & Prog : Marc-Olivier Méhu
Technical & hardware support : Manuel Goepfert

Contact : metmap@orbifly.com




SOURCES & CREDITS :

   NOAA